createdAt,value
2019-04-05T00:02:27.042Z,9.57
2019-04-05T00:04:57.084Z,9.20
2019-04-05T00:07:27.102Z,8.67
2019-04-05T00:09:57.153Z,11.17
2019-04-05T00:12:28.067Z,8.70
2019-04-05T00:14:58.084Z,9.57
2019-04-05T00:17:28.134Z,8.63
2019-04-05T00:19:58.049Z,9.10
2019-04-05T00:22:28.042Z,11.00
2019-04-05T00:24:58.018Z,8.33
2019-04-05T00:27:27.974Z,9.60
2019-04-05T00:29:57.922Z,8.77
2019-04-05T00:32:27.906Z,8.50
2019-04-05T00:34:57.938Z,9.33
2019-04-05T00:37:29.002Z,9.80
2019-04-05T00:39:59.086Z,10.03
2019-04-05T00:42:29.026Z,8.63
2019-04-05T00:44:59.007Z,9.57
2019-04-05T00:47:29.014Z,9.50
2019-04-05T00:50:00.070Z,8.60
2019-04-05T00:52:30.137Z,8.77
2019-04-05T00:55:00.099Z,9.30
2019-04-05T00:57:30.003Z,9.17
2019-04-05T00:59:59.874Z,9.67
2019-04-05T01:02:29.829Z,8.67
2019-04-05T01:04:59.806Z,8.80
2019-04-05T01:07:29.790Z,10.83
2019-04-05T01:09:59.767Z,9.07
2019-04-05T01:12:32.098Z,9.63
2019-04-05T01:15:02.449Z,9.33
2019-04-05T01:17:32.563Z,8.63
2019-04-05T01:20:03.759Z,8.97
2019-04-05T01:22:33.764Z,8.20
2019-04-05T01:25:05.620Z,10.03
2019-04-05T01:27:35.763Z,9.53
2019-04-05T01:30:06.334Z,8.87
2019-04-05T01:32:36.299Z,9.83
2019-04-05T01:35:06.474Z,9.67
2019-04-05T01:37:37.085Z,7.87
2019-04-05T01:40:08.156Z,9.93
2019-04-05T01:42:38.390Z,8.90
2019-04-05T01:45:08.406Z,7.93
2019-04-05T01:47:38.436Z,11.07
2019-04-05T01:50:08.398Z,9.63
2019-04-05T01:52:38.377Z,7.50
2019-04-05T01:55:08.560Z,9.00
2019-04-05T01:57:38.607Z,9.60
2019-04-05T02:00:09.934Z,9.20
2019-04-05T02:02:39.837Z,10.17
2019-04-05T02:05:09.755Z,9.90
2019-04-05T02:07:39.700Z,8.53
2019-04-05T02:10:09.693Z,9.73
2019-04-05T02:12:40.666Z,8.53
2019-04-05T02:15:10.598Z,9.30
2019-04-05T02:17:40.530Z,8.47
2019-04-05T02:20:10.451Z,7.70
2019-04-05T02:22:40.571Z,9.43
2019-04-05T02:25:10.674Z,9.67
2019-04-05T02:27:40.675Z,8.67
2019-04-05T02:30:10.631Z,7.97
2019-04-05T02:32:40.536Z,8.40
2019-04-05T02:35:10.485Z,8.07
2019-04-05T02:37:40.385Z,8.47
2019-04-05T02:40:11.655Z,8.50
2019-04-05T02:42:41.676Z,8.53
2019-04-05T02:45:11.964Z,7.80
2019-04-05T02:47:42.398Z,8.50
2019-04-05T02:50:12.849Z,7.90
2019-04-05T02:52:43.213Z,8.53
2019-04-05T02:55:13.183Z,7.90
2019-04-05T02:57:43.463Z,8.40
2019-04-05T03:00:13.513Z,9.47
2019-04-05T03:02:43.427Z,7.90
2019-04-05T03:05:13.484Z,8.53
2019-04-05T03:07:43.456Z,8.27
2019-04-05T03:11:00.759Z,7.97
2019-04-05T03:13:31.973Z,8.63
2019-04-05T03:16:03.274Z,9.27
2019-04-05T03:18:33.356Z,8.57
2019-04-05T03:21:05.479Z,7.50
2019-04-05T03:23:36.599Z,8.10
2019-04-05T03:26:06.612Z,9.77
2019-04-05T03:28:36.987Z,9.90
2019-04-05T03:31:06.998Z,9.40
2019-04-05T03:33:37.056Z,8.20
2019-04-05T03:36:07.126Z,8.87
2019-04-05T03:38:37.117Z,7.50
2019-04-05T03:41:07.338Z,8.57
2019-04-05T03:43:37.311Z,8.23
2019-04-05T03:46:07.267Z,8.70
2019-04-05T03:48:37.296Z,8.73
2019-04-05T03:51:07.317Z,8.87
2019-04-05T03:53:37.367Z,10.47
2019-04-05T03:56:07.357Z,7.37
2019-04-05T03:58:37.818Z,8.03
2019-04-05T04:01:07.932Z,8.70
2019-04-05T04:03:37.885Z,9.40
2019-04-05T04:06:07.930Z,8.83
2019-04-05T04:08:37.822Z,9.70
2019-04-05T04:11:08.421Z,8.57
2019-04-05T04:13:39.400Z,9.43
2019-04-05T04:16:09.286Z,8.43
2019-04-05T04:18:39.273Z,8.33
2019-04-05T04:21:21.574Z,7.93
2019-04-05T04:23:51.607Z,9.63
2019-04-05T04:26:21.665Z,9.37
2019-04-05T04:28:51.722Z,7.53
2019-04-05T04:31:21.698Z,8.73
2019-04-05T04:33:51.742Z,8.73
2019-04-05T04:36:21.846Z,8.03
2019-04-05T04:38:51.956Z,8.53
2019-04-05T04:41:22.039Z,9.03
2019-04-05T04:43:52.185Z,8.90
2019-04-05T04:46:22.199Z,8.50
2019-04-05T04:48:52.479Z,8.33
2019-04-05T04:51:22.447Z,9.23
2019-04-05T04:53:52.414Z,8.47
2019-04-05T04:56:22.297Z,9.43
2019-04-05T04:58:52.242Z,7.87
2019-04-05T05:01:22.219Z,8.73
2019-04-05T05:03:52.226Z,8.67
2019-04-05T05:06:22.258Z,9.60
2019-04-05T05:08:52.266Z,8.53
2019-04-05T05:11:22.212Z,8.87
2019-04-05T05:13:53.096Z,7.87
2019-04-05T05:16:23.011Z,8.20
2019-04-05T05:18:53.113Z,8.30
2019-04-05T05:21:23.000Z,7.70
2019-04-05T05:23:52.879Z,9.27
2019-04-05T05:26:22.890Z,8.77
2019-04-05T05:28:53.114Z,8.43
2019-04-05T05:31:23.071Z,9.67
2019-04-05T05:33:53.139Z,7.67
2019-04-05T05:36:23.183Z,7.93
2019-04-05T05:38:53.037Z,9.77
2019-04-05T05:41:22.954Z,8.60
2019-04-05T05:43:52.842Z,11.13
2019-04-05T05:46:22.920Z,7.97
2019-04-05T05:48:52.851Z,9.77
2019-04-05T05:51:22.814Z,10.93
2019-04-05T05:53:52.598Z,8.83
2019-04-05T05:56:22.538Z,12.50
2019-04-05T05:58:55.304Z,11.90
2019-04-05T06:01:24.139Z,11.03
2019-04-05T06:03:54.060Z,12.93
2019-04-05T06:06:24.002Z,9.80
2019-04-05T06:08:54.013Z,9.77
2019-04-05T06:11:23.985Z,9.13
2019-04-05T06:13:54.898Z,11.63
2019-04-05T06:16:24.750Z,13.13
2019-04-05T06:18:54.749Z,16.87
2019-04-05T06:21:25.873Z,16.37
2019-04-05T06:23:55.843Z,13.83
2019-04-05T06:26:25.890Z,16.57
2019-04-05T06:28:55.822Z,14.67
2019-04-05T06:31:25.917Z,17.80
2019-04-05T06:33:55.821Z,15.97
2019-04-05T06:36:25.738Z,16.93
2019-04-05T06:38:55.824Z,14.53
2019-04-05T06:41:25.685Z,15.80
2019-04-05T06:43:55.651Z,22.13
2019-04-05T06:46:25.610Z,18.43
2019-04-05T06:48:55.634Z,17.23
2019-04-05T06:51:25.571Z,17.60
2019-04-05T06:53:55.521Z,12.70
2019-04-05T06:56:25.501Z,12.57
2019-04-05T06:58:55.426Z,14.13
2019-04-05T07:01:25.367Z,17.40
2019-04-05T07:03:55.420Z,17.47
2019-04-05T07:06:25.482Z,14.93
2019-04-05T07:08:55.498Z,15.53
2019-04-05T07:11:25.496Z,14.30
2019-04-05T07:13:55.495Z,14.60
2019-04-05T07:16:25.368Z,16.53
2019-04-05T07:18:55.322Z,15.37
2019-04-05T07:21:25.271Z,17.37
2019-04-05T07:23:55.179Z,16.10
2019-04-05T07:26:25.116Z,13.37
2019-04-05T07:28:55.103Z,17.83
2019-04-05T07:31:25.230Z,16.97
2019-04-05T07:33:56.300Z,21.50
2019-04-05T07:36:26.520Z,14.83
2019-04-05T07:38:56.503Z,14.70
2019-04-05T07:41:26.469Z,14.90
2019-04-05T07:43:56.378Z,14.60
2019-04-05T07:46:26.242Z,16.03
2019-04-05T07:48:56.121Z,13.47
2019-04-05T07:51:26.039Z,13.20
2019-04-05T07:53:56.128Z,14.40
2019-04-05T07:56:26.436Z,16.03
2019-04-05T07:58:56.530Z,15.23
2019-04-05T08:01:26.378Z,13.67
2019-04-05T08:03:58.065Z,19.80
2019-04-05T08:06:27.924Z,11.53
2019-04-05T08:09:07.184Z,15.30
2019-04-05T08:11:37.178Z,14.37
2019-04-05T08:14:07.163Z,11.90
2019-04-05T08:16:37.210Z,28.07
2019-04-05T08:19:07.166Z,24.77
2019-04-05T08:21:37.029Z,18.27
2019-04-05T08:24:06.906Z,16.77
2019-04-05T08:26:36.766Z,16.20
2019-04-05T08:29:06.698Z,15.73
2019-04-05T08:31:36.701Z,18.77
2019-04-05T08:34:06.650Z,14.53
2019-04-05T08:36:36.530Z,20.80
2019-04-05T08:39:08.090Z,17.20
2019-04-05T08:41:37.981Z,15.53
2019-04-05T08:44:07.957Z,16.53
2019-04-05T08:46:37.925Z,19.03
2019-04-05T08:49:10.957Z,14.77
2019-04-05T08:51:40.579Z,14.43
2019-04-05T08:54:10.457Z,15.37
2019-04-05T08:56:40.534Z,15.80
2019-04-05T08:59:10.517Z,14.33
2019-04-05T09:01:40.513Z,14.90
2019-04-05T09:04:10.490Z,14.63
2019-04-05T09:06:40.354Z,14.77
2019-04-05T09:09:10.334Z,13.73
2019-04-05T09:11:40.227Z,12.90
2019-04-05T09:14:10.200Z,15.20
2019-04-05T09:16:40.235Z,12.23
2019-04-05T09:19:22.755Z,15.00
2019-04-05T09:21:41.829Z,12.07
2019-04-05T09:24:11.780Z,14.17
2019-04-05T09:26:41.630Z,14.87
2019-04-05T09:29:11.630Z,14.27
2019-04-05T09:31:41.606Z,13.80
2019-04-05T09:34:11.530Z,17.00
2019-04-05T09:36:41.506Z,14.83
2019-04-05T09:39:15.525Z,13.33
2019-04-05T09:41:43.680Z,13.93
2019-04-05T09:44:13.534Z,12.77
2019-04-05T09:46:50.655Z,10.90
2019-04-05T09:49:17.954Z,11.80
2019-04-05T09:51:47.806Z,14.57
2019-04-05T09:54:17.793Z,11.83
2019-04-05T09:56:47.775Z,16.30
2019-04-05T09:59:17.638Z,11.87
2019-04-05T10:01:47.507Z,12.90
2019-04-05T10:04:17.391Z,13.10
2019-04-05T10:06:47.261Z,13.67
2019-04-05T10:09:17.218Z,10.20
2019-04-05T10:11:47.151Z,11.40
2019-04-05T10:14:17.048Z,14.33
2019-04-05T10:16:47.009Z,14.03
2019-04-05T10:19:16.953Z,14.57
2019-04-05T10:21:46.879Z,15.23
2019-04-05T10:24:16.805Z,10.53
2019-04-05T10:26:46.648Z,13.20
2019-04-05T10:29:16.550Z,12.87
2019-04-05T10:31:46.426Z,13.60
2019-04-05T10:34:16.446Z,12.23
2019-04-05T10:36:46.244Z,16.27
2019-04-05T10:39:16.248Z,18.30
2019-04-05T10:41:46.170Z,17.63
2019-04-05T10:44:17.233Z,23.13
2019-04-05T10:46:48.181Z,18.80
2019-04-05T10:49:18.032Z,14.77
2019-04-05T10:51:47.962Z,13.07
2019-04-05T10:54:17.846Z,15.30
2019-04-05T10:56:47.736Z,13.47
2019-04-05T10:59:17.673Z,17.07
2019-04-05T11:01:47.574Z,12.10
2019-04-05T11:04:18.726Z,13.93
2019-04-05T11:06:48.530Z,14.00
2019-04-05T11:09:18.453Z,13.80
2019-04-05T11:11:50.141Z,11.33
2019-04-05T11:14:19.989Z,17.20
2019-04-05T11:17:04.482Z,12.73
2019-04-05T11:19:36.371Z,11.17
2019-04-05T11:22:05.206Z,10.73
2019-04-05T11:24:35.063Z,13.27
2019-04-05T11:27:06.774Z,12.63
2019-04-05T11:29:36.884Z,12.90
2019-04-05T11:32:07.133Z,15.40
2019-04-05T11:34:37.034Z,11.40
2019-04-05T11:37:06.921Z,11.90
2019-04-05T11:39:36.952Z,13.97
2019-04-05T11:42:06.949Z,12.73
2019-04-05T11:44:36.882Z,15.73
2019-04-05T11:47:06.737Z,13.83
2019-04-05T11:49:36.685Z,16.50
2019-04-05T11:52:06.621Z,15.80
2019-04-05T11:54:36.673Z,15.47
2019-04-05T11:57:06.598Z,15.60
2019-04-05T11:59:36.621Z,15.60
2019-04-05T12:02:34.519Z,12.83
2019-04-05T12:05:05.387Z,13.17
2019-04-05T12:07:35.465Z,13.57
2019-04-05T12:10:06.740Z,13.47
2019-04-05T12:12:36.683Z,13.23
2019-04-05T12:15:07.318Z,14.07
2019-04-05T12:17:37.387Z,13.17
2019-04-05T12:20:08.333Z,15.23
2019-04-05T12:22:38.398Z,12.03
2019-04-05T12:25:08.446Z,16.20
2019-04-05T12:27:38.815Z,11.67
2019-04-05T12:30:09.621Z,16.60
2019-04-05T12:32:41.555Z,19.70
2019-04-05T12:35:11.296Z,14.50
2019-04-05T12:37:50.199Z,13.37
2019-04-05T12:40:14.858Z,11.23
2019-04-05T12:42:46.066Z,20.90
2019-04-05T12:45:16.103Z,14.40
2019-04-05T12:47:46.253Z,15.60
2019-04-05T12:50:16.397Z,13.23
2019-04-05T12:52:46.386Z,12.00
2019-04-05T12:55:17.023Z,12.90
2019-04-05T12:57:48.416Z,12.63
2019-04-05T13:00:19.390Z,10.83
2019-04-05T13:02:50.369Z,11.70
2019-04-05T13:05:22.008Z,9.17
2019-04-05T13:07:52.577Z,14.17
2019-04-05T13:10:26.126Z,11.37
2019-04-05T13:12:57.726Z,11.67
2019-04-05T13:15:26.804Z,13.50
2019-04-05T13:18:00.432Z,9.63
2019-04-05T13:20:30.197Z,12.87
2019-04-05T13:23:02.475Z,10.20
2019-04-05T13:25:31.955Z,11.13
2019-04-05T13:28:12.768Z,10.20
2019-04-05T13:30:33.770Z,10.13
2019-04-05T13:33:03.886Z,9.63
2019-04-05T13:35:33.812Z,11.30
2019-04-05T13:38:03.755Z,10.67
2019-04-05T13:40:33.629Z,11.63
2019-04-05T13:43:03.775Z,10.83
2019-04-05T13:45:33.669Z,11.17
2019-04-05T13:48:03.684Z,10.23
2019-04-05T13:50:34.704Z,11.43
2019-04-05T13:53:04.725Z,12.30
2019-04-05T13:55:34.746Z,10.43
2019-04-05T13:58:04.823Z,8.90
2019-04-05T14:00:34.817Z,9.03
2019-04-05T14:03:05.015Z,9.10
2019-04-05T14:05:34.929Z,14.80
2019-04-05T14:08:10.320Z,9.37
2019-04-05T14:10:37.235Z,10.93
2019-04-05T14:13:07.657Z,9.27
2019-04-05T14:15:41.806Z,12.17
2019-04-05T14:18:14.486Z,10.97
2019-04-05T14:20:42.318Z,9.47
2019-04-05T14:23:12.321Z,10.67
2019-04-05T14:25:43.270Z,9.37
2019-04-05T14:28:13.246Z,11.87
2019-04-05T14:30:43.326Z,9.60
2019-04-05T14:33:13.278Z,10.00
2019-04-05T14:35:43.339Z,10.43
2019-04-05T14:38:13.334Z,10.07
2019-04-05T14:40:43.291Z,10.20
2019-04-05T14:43:14.977Z,9.43
2019-04-05T14:45:46.049Z,11.13
2019-04-05T14:48:16.100Z,9.87
2019-04-05T14:50:46.290Z,9.03
2019-04-05T14:53:16.274Z,8.80
2019-04-05T14:55:46.262Z,9.50
2019-04-05T14:58:19.293Z,11.30
2019-04-05T15:00:49.107Z,9.77
2019-04-05T15:03:19.520Z,8.97
2019-04-05T15:05:49.550Z,8.70
2019-04-05T15:08:20.655Z,8.03
2019-04-05T15:10:51.564Z,7.77
2019-04-05T15:13:21.735Z,8.63
2019-04-05T15:15:51.803Z,8.23
2019-04-05T15:18:24.146Z,8.87
2019-04-05T15:20:53.523Z,8.60
2019-04-05T15:23:23.545Z,8.10
2019-04-05T15:25:53.586Z,8.57
2019-04-05T15:28:24.581Z,8.07
2019-04-05T15:30:56.150Z,7.63
2019-04-05T15:33:27.851Z,8.17
2019-04-05T15:36:02.329Z,7.33
2019-04-05T15:38:31.850Z,8.60
2019-04-05T15:41:01.974Z,9.27
2019-04-05T15:43:32.012Z,9.03
2019-04-05T15:46:03.026Z,9.03
2019-04-05T15:48:33.884Z,8.27
2019-04-05T15:51:03.887Z,7.77
2019-04-05T15:53:33.929Z,16.37
2019-04-05T15:56:04.878Z,12.70
2019-04-05T15:58:35.004Z,14.60
2019-04-05T16:01:05.522Z,10.70
2019-04-05T16:03:36.960Z,9.73
2019-04-05T16:06:06.946Z,10.43
2019-04-05T16:08:36.942Z,8.80
2019-04-05T16:11:06.980Z,10.03
2019-04-05T16:13:36.915Z,11.70
2019-04-05T16:16:07.030Z,12.10
2019-04-05T16:18:36.963Z,11.07
2019-04-05T16:21:07.056Z,12.17
2019-04-05T16:23:37.174Z,12.73
2019-04-05T16:26:07.324Z,9.83
2019-04-05T16:28:37.401Z,12.30
2019-04-05T16:31:07.256Z,11.37
2019-04-05T16:33:37.154Z,15.87
2019-04-05T16:36:07.961Z,11.97
2019-04-05T16:38:37.897Z,13.20
2019-04-05T16:41:07.776Z,10.50
2019-04-05T16:43:37.755Z,9.03
2019-04-05T16:46:08.594Z,9.57
2019-04-05T16:48:38.521Z,10.50
2019-04-05T16:51:08.710Z,15.53
2019-04-05T16:53:59.194Z,9.73
2019-04-05T16:56:30.214Z,13.90
2019-04-05T16:59:00.193Z,9.50
2019-04-05T17:01:30.155Z,8.23
2019-04-05T17:04:00.247Z,9.10
2019-04-05T17:06:30.194Z,11.00
2019-04-05T17:09:00.247Z,13.97
2019-04-05T17:11:30.623Z,9.97
2019-04-05T17:14:00.652Z,8.33
2019-04-05T17:16:30.666Z,9.30
2019-04-05T17:19:00.911Z,10.07
2019-04-05T17:21:30.998Z,12.93
2019-04-05T17:24:01.054Z,10.37
2019-04-05T17:26:31.093Z,9.17
2019-04-05T17:29:01.017Z,10.83
2019-04-05T17:31:31.063Z,9.23
2019-04-05T17:34:01.040Z,10.73
2019-04-05T17:36:31.020Z,8.43
2019-04-05T17:39:01.035Z,16.27
2019-04-05T17:41:32.782Z,11.13
2019-04-05T17:44:02.750Z,12.23
2019-04-05T17:46:33.779Z,12.27
2019-04-05T17:49:04.047Z,10.47
2019-04-05T17:51:34.250Z,11.17
2019-04-05T17:54:04.336Z,10.97
2019-04-05T17:56:34.447Z,12.90
2019-04-05T17:59:04.650Z,16.47
2019-04-05T18:01:34.771Z,20.77
2019-04-05T18:04:04.812Z,17.00
2019-04-05T18:06:34.777Z,10.73
2019-04-05T18:09:05.591Z,8.97
2019-04-05T18:11:36.406Z,13.60
2019-04-05T18:14:06.307Z,12.07
2019-04-05T18:16:36.236Z,12.93
2019-04-05T18:19:06.267Z,15.47
2019-04-05T18:21:36.328Z,14.37
2019-04-05T18:24:06.338Z,18.87
2019-04-05T18:26:36.301Z,11.17
2019-04-05T18:29:06.162Z,16.27
2019-04-05T18:31:36.147Z,13.37
2019-04-05T18:34:07.468Z,15.77
2019-04-05T18:36:37.959Z,15.00
2019-04-05T18:39:08.205Z,17.60
2019-04-05T18:41:38.833Z,12.90
2019-04-05T18:44:09.120Z,13.90
2019-04-05T18:46:39.685Z,15.80
2019-04-05T18:49:10.861Z,13.30
2019-04-05T18:51:43.461Z,15.63
2019-04-05T18:54:13.943Z,15.20
2019-04-05T18:56:44.408Z,14.60
2019-04-05T18:59:15.103Z,13.30
2019-04-05T19:01:45.111Z,13.53
2019-04-05T19:04:15.009Z,17.63
2019-04-05T19:06:44.896Z,13.30
2019-04-05T19:09:14.792Z,14.10
2019-04-05T19:11:44.697Z,15.57
2019-04-05T19:14:14.707Z,11.10
2019-04-05T19:16:44.907Z,14.43
2019-04-05T19:19:17.658Z,14.17
2019-04-05T19:21:46.509Z,12.93
2019-04-05T19:24:16.565Z,13.43
2019-04-05T19:26:46.448Z,12.83
2019-04-05T19:29:16.394Z,16.63
2019-04-05T19:49:31.606Z,13.50
2019-04-05T19:52:01.610Z,14.20
2019-04-05T19:54:31.657Z,14.50
2019-04-05T19:57:01.517Z,16.30
2019-04-05T19:59:31.457Z,15.03
2019-04-05T20:02:01.532Z,11.50
2019-04-05T20:04:31.526Z,13.63
2019-04-05T20:07:01.460Z,14.23
2019-04-05T20:09:31.317Z,13.37
2019-04-05T20:12:01.179Z,17.07
2019-04-05T20:14:31.277Z,13.00
2019-04-05T20:17:01.220Z,11.63
2019-04-05T20:19:31.160Z,13.73
2019-04-05T20:22:01.197Z,12.80
2019-04-05T20:24:31.157Z,12.23
2019-04-05T20:27:02.175Z,10.73
2019-04-05T20:29:32.156Z,13.17
2019-04-05T20:32:02.039Z,12.40
2019-04-05T20:34:32.061Z,12.07
2019-04-05T20:37:03.158Z,12.30
2019-04-05T20:39:33.109Z,14.77
2019-04-05T20:42:03.114Z,11.03
2019-04-05T20:44:33.082Z,14.73
2019-04-05T20:47:03.111Z,10.37
2019-04-05T20:49:33.186Z,12.30
2019-04-05T20:52:03.133Z,13.17
2019-04-05T20:54:33.175Z,11.40
2019-04-05T20:57:03.113Z,12.57
2019-04-05T20:59:33.003Z,13.93
2019-04-05T21:02:02.864Z,13.67
2019-04-05T21:04:32.899Z,14.17
2019-04-05T21:07:02.849Z,12.23
2019-04-05T21:09:32.944Z,14.40
2019-04-05T21:12:02.918Z,14.50
2019-04-05T21:14:32.780Z,12.40
2019-04-05T21:17:02.645Z,11.80
2019-04-05T21:19:32.550Z,11.90
2019-04-05T21:22:02.476Z,11.20
2019-04-05T21:24:36.267Z,12.17
2019-04-05T21:27:04.000Z,11.03
2019-04-05T21:29:34.002Z,11.80
2019-04-05T21:32:03.983Z,12.87
2019-04-05T21:34:33.857Z,12.90
2019-04-05T21:37:04.717Z,12.40
2019-04-05T21:39:34.562Z,11.57
2019-04-05T21:42:04.437Z,11.57
2019-04-05T21:44:34.399Z,13.03
2019-04-05T21:47:04.455Z,11.57
2019-04-05T21:49:34.490Z,12.43
2019-04-05T21:52:04.448Z,12.27
2019-04-05T21:54:34.341Z,13.80
2019-04-05T21:57:04.195Z,13.80
2019-04-05T21:59:34.077Z,12.33
2019-04-05T22:02:04.169Z,12.40
2019-04-05T22:04:34.102Z,11.23
2019-04-05T22:07:04.038Z,11.43
2019-04-05T22:09:33.999Z,11.53
2019-04-05T22:12:04.071Z,10.43
2019-04-05T22:14:34.038Z,10.80
2019-04-05T22:17:03.882Z,12.57
2019-04-05T22:19:33.837Z,11.63
2019-04-05T22:22:03.731Z,11.50
2019-04-05T22:24:33.720Z,10.87
2019-04-05T22:27:03.698Z,12.87
2019-04-05T22:29:33.642Z,11.77
2019-04-05T22:32:03.579Z,10.73
2019-04-05T22:34:33.441Z,11.70
2019-04-05T22:37:03.382Z,13.00
2019-04-05T22:39:33.365Z,11.00
2019-04-05T22:42:03.290Z,12.40
2019-04-05T22:44:39.992Z,10.57
2019-04-05T22:47:04.763Z,13.13
2019-04-05T22:49:34.710Z,11.67
2019-04-05T22:52:04.562Z,10.93
2019-04-05T22:54:34.426Z,13.23
2019-04-05T22:57:04.283Z,11.67
2019-04-05T22:59:34.091Z,10.30
2019-04-05T23:02:04.086Z,11.77
2019-04-05T23:04:34.009Z,10.70
2019-04-05T23:07:03.959Z,10.90
2019-04-05T23:09:33.885Z,10.57
2019-04-05T23:12:03.743Z,11.17
2019-04-05T23:14:33.761Z,9.67
2019-04-05T23:17:03.618Z,9.60
2019-04-05T23:19:33.495Z,12.23
2019-04-05T23:22:03.420Z,11.20
2019-04-05T23:24:33.523Z,12.17
2019-04-05T23:27:03.455Z,10.30
2019-04-05T23:29:33.300Z,9.87
2019-04-05T23:32:03.159Z,9.73
2019-04-05T23:34:33.085Z,10.73
2019-04-05T23:37:02.949Z,10.23
2019-04-05T23:39:32.724Z,9.80
2019-04-05T23:42:02.723Z,9.80
2019-04-05T23:44:32.709Z,9.93
2019-04-05T23:47:02.719Z,11.30
2019-04-05T23:49:32.569Z,9.17
2019-04-05T23:52:02.547Z,9.70
2019-04-05T23:54:32.582Z,10.87
2019-04-05T23:57:02.510Z,10.50
2019-04-05T23:59:33.424Z,10.10
